Bridget Caulley — WDF3975 — position and weather

sailwx.info

Track history (hours):
 
Tides and Currents Weather Stations Pressure Air Temp Water Temp Dewpoint Dewpoint Depression Visibility Wind Speed Wind Dir Waves Ship Positions

Bridget Caulley

Owner: Kirby Inland Marine, LP, Houston, TX. More information available from US FCC via Universal Licensing System and Coast Guard Vessel Documentation Center.

Last reported at 2018-Feb-08 02:00 UTC. Time now 2018-Feb-25 03:52 UTC.
Position N 32°07' W 091°01'.
Warning: this ship's position is 17 days out of date.

Length 268 m; draft 3 m.

Type: . MMSI: 367446370.

Date/timePositionNaut miles runAvg speedWind from/ knotsBaromVisibWave heightAir tempDewpointWater temp
2018-Feb-08 02:00N 32°07' W 091°01'3 4.3
2018-Feb-08 01:13N 32°08' W 091°05'1 4.6
2018-Feb-08 01:00N 32°08' W 091°06'  
2018-Feb-03 09:36N 32°02' W 091°04'410.3
2018-Feb-03 09:10N 32°06' W 091°06'1 9.1
2018-Feb-03 09:00N 32°08' W 091°06'510.0
2018-Feb-03 08:30N 32°08' W 091°00'611.2
2018-Feb-03 08:00N 32°14' W 090°59'11 7.2
2018-Feb-03 06:30N 32°25' W 090°59'510.9
2018-Feb-03 06:01N 32°27' W 091°05'510.4
2018-Feb-03 05:30N 32°32' W 091°06'510.9
2018-Feb-03 05:00N 32°37' W 091°09'  
Track history (hours):
 
Tides and Currents Weather Stations Pressure Air Temp Water Temp Dewpoint Dewpoint Depression Visibility Wind Speed Wind Dir Waves Ship Positions

Bridget Caulley

Owner: Kirby Inland Marine, LP, Houston, TX. More information available from US FCC via Universal Licensing System and Coast Guard Vessel Documentation Center.

Last reported at 2018-Feb-08 02:00 UTC. Time now 2018-Feb-25 03:52 UTC.
Position N 32°07' W 091°01'.
Warning: this ship's position is 17 days out of date.

Length 268 m; draft 3 m.

Type: . MMSI: 367446370.

Date/timePositionNaut miles runAvg speedWind from/ knotsBaromVisibWave heightAir tempDewpointWater temp
2018-Feb-08 02:00N 32°07' W 091°01'3 4.3
2018-Feb-08 01:13N 32°08' W 091°05'1 4.6
2018-Feb-08 01:00N 32°08' W 091°06'  
2018-Feb-03 09:36N 32°02' W 091°04'410.3
2018-Feb-03 09:10N 32°06' W 091°06'1 9.1
2018-Feb-03 09:00N 32°08' W 091°06'510.0
2018-Feb-03 08:30N 32°08' W 091°00'611.2
2018-Feb-03 08:00N 32°14' W 090°59'11 7.2
2018-Feb-03 06:30N 32°25' W 090°59'510.9
2018-Feb-03 06:01N 32°27' W 091°05'510.4
2018-Feb-03 05:30N 32°32' W 091°06'510.9
2018-Feb-03 05:00N 32°37' W 091°09'  

Dump ship's entire track history